Time;durP1;ratioP1;P1;durP2;ratioP2;P2;SDS_P1;SDS_P2;PMS_P1;PMS_P2;Temp;Humidity;BMP_temperature;BMP_pressure;BME280_temperature;BME280_humidity;BME280_pressure;Samples;Min_cycle;Max_cycle;Signal;HPM_P1;HPM_P2
2022/09/24 00:00:05;;;;;;;23.48;18.92;;;;;;;12.33;100.00;101178.31;1036360;28;20048;-89
2022/09/24 00:00:37;;;;;;;20.60;18.42;;;;;;;12.33;100.00;101174.81;1037391;28;20472;-89
2022/09/24 00:01:17;;;;;;;25.70;19.65;;;;;;;12.31;100.00;101176.88;1040153;28;20187;-88
2022/09/24 00:01:50;;;;;;;27.08;20.27;;;;;;;12.32;100.00;101183.84;1037812;28;20289;-90
2022/09/24 00:02:22;;;;;;;25.20;19.85;;;;;;;12.30;100.00;101176.06;1044655;28;20406;-89
2022/09/24 00:02:53;;;;;;;25.77;19.38;;;;;;;12.31;100.00;101174.19;1044468;28;20674;-89
2022/09/24 00:03:25;;;;;;;25.42;19.20;;;;;;;12.28;100.00;101177.31;1037209;28;20097;-89
2022/09/24 00:04:00;;;;;;;23.95;19.13;;;;;;;12.26;100.00;101174.03;1045994;28;20384;-89
2022/09/24 00:04:31;;;;;;;22.90;18.38;;;;;;;12.28;100.00;101172.78;1040674;28;20296;-89
2022/09/24 00:05:03;;;;;;;22.08;18.58;;;;;;;12.28;100.00;101171.97;1041145;28;20371;-88
2022/09/24 00:05:37;;;;;;;25.23;19.60;;;;;;;12.24;100.00;101176.13;1047012;28;20083;-89
2022/09/24 00:06:09;;;;;;;26.65;18.85;;;;;;;12.23;100.00;101169.97;1041055;28;20374;-78
2022/09/24 00:06:45;;;;;;;27.10;18.73;;;;;;;12.22;100.00;101176.34;1039509;28;20304;-77
2022/09/24 00:07:17;;;;;;;24.83;19.88;;;;;;;12.22;100.00;101171.00;1036143;28;20339;-87
2022/09/24 00:07:48;;;;;;;23.45;20.05;;;;;;;12.23;100.00;101169.97;1034679;28;20298;-88
2022/09/24 00:08:20;;;;;;;23.17;19.35;;;;;;;12.27;100.00;101173.00;1037174;28;20299;-77
2022/09/24 00:08:54;;;;;;;24.17;19.30;;;;;;;12.24;100.00;101170.78;1039998;28;20304;-77
2022/09/24 00:09:25;;;;;;;19.90;17.02;;;;;;;12.25;100.00;101172.41;1040419;28;20643;-77
2022/09/24 00:09:57;;;;;;;22.30;18.95;;;;;;;12.21;100.00;101171.22;1041930;28;20709;-77
2022/09/24 00:10:28;;;;;;;24.40;19.58;;;;;;;12.22;100.00;101173.66;1047693;28;20298;-78
2022/09/24 00:11:03;;;;;;;27.38;21.10;;;;;;;12.23;100.00;101169.13;1044088;28;20338;-78
2022/09/24 00:11:35;;;;;;;22.90;19.02;;;;;;;12.21;100.00;101171.22;1039735;28;20308;-78
2022/09/24 00:12:06;;;;;;;23.77;19.02;;;;;;;12.22;100.00;101175.53;1035326;28;20358;-78
2022/09/24 00:12:38;;;;;;;25.02;20.92;;;;;;;12.23;100.00;101171.81;1036415;28;20387;-78
2022/09/24 00:13:13;;;;;;;22.67;18.80;;;;;;;12.22;100.00;101170.19;1036824;28;20316;-78
2022/09/24 00:13:44;;;;;;;24.48;19.23;;;;;;;12.21;100.00;101177.38;1039766;28;20302;-77
2022/09/24 00:14:16;;;;;;;25.08;19.63;;;;;;;12.20;100.00;101169.56;1037143;28;20335;-77
2022/09/24 00:14:48;;;;;;;22.63;18.58;;;;;;;12.23;100.00;101174.47;1036153;28;20312;-78
2022/09/24 00:15:19;;;;;;;20.88;18.38;;;;;;;12.25;100.00;101172.41;1036551;28;20289;-77
2022/09/24 00:15:51;;;;;;;21.20;17.50;;;;;;;12.25;100.00;101172.41;1035194;28;20038;-78
2022/09/24 00:16:25;;;;;;;26.60;19.63;;;;;;;12.22;100.00;101167.50;1036159;28;20304;-78
2022/09/24 00:16:56;;;;;;;23.52;19.33;;;;;;;12.22;100.00;101178.19;1036725;28;20357;-78
2022/09/24 00:17:28;;;;;;;26.55;18.73;;;;;;;12.19;100.00;101171.44;1039484;28;20441;-78
2022/09/24 00:18:00;;;;;;;22.20;17.73;;;;;;;12.20;100.00;101173.06;1040382;28;20288;-89
2022/09/24 00:18:32;;;;;;;22.77;19.17;;;;;;;12.20;100.00;101174.91;1045611;28;20291;-88
2022/09/24 00:19:05;;;;;;;24.80;19.25;;;;;;;12.21;100.00;101166.69;1045146;28;20276;-89
2022/09/24 00:19:36;;;;;;;22.65;18.55;;;;;;;12.23;100.00;101166.47;1045668;28;20314;-88
2022/09/24 00:20:08;;;;;;;21.70;18.33;;;;;;;12.20;100.00;101172.25;1049047;28;20362;-89
2022/09/24 00:20:40;;;;;;;23.83;18.30;;;;;;;12.21;100.00;101173.88;1046911;28;20288;-89
2022/09/24 00:21:12;;;;;;;23.92;19.50;;;;;;;12.19;100.00;101167.94;1048348;28;20352;-87
2022/09/24 00:21:44;;;;;;;22.30;18.63;;;;;;;12.21;100.00;101173.88;1045166;28;20381;-89
2022/09/24 00:22:15;;;;;;;23.77;18.65;;;;;;;12.22;100.00;101170.19;1042008;28;20308;-88
2022/09/24 00:22:47;;;;;;;24.92;17.40;;;;;;;12.23;100.00;101164.63;1042654;28;20603;-87
2022/09/24 00:23:18;;;;;;;23.33;18.67;;;;;;;12.20;100.00;101173.06;1036554;28;20714;-84
2022/09/24 00:23:55;;;;;;;23.30;19.58;;;;;;;12.21;100.00;101173.88;1043095;28;20562;-88
2022/09/24 00:27:01;;;;;;;24.65;17.30;;;;;;;12.21;100.00;101166.69;1036421;28;20301;-88
2022/09/24 00:27:33;;;;;;;23.67;19.30;;;;;;;12.24;100.00;101170.78;1042171;28;20311;-89
2022/09/24 00:28:05;;;;;;;23.73;18.92;;;;;;;12.20;100.00;101166.91;1044031;28;20295;-77
2022/09/24 00:28:36;;;;;;;25.63;19.35;;;;;;;12.23;100.00;101166.47;1043637;28;20295;-78
2022/09/24 00:29:10;;;;;;;24.67;17.48;;;;;;;12.29;100.00;101173.59;1047519;28;20819;-78
2022/09/24 00:29:42;;;;;;;25.02;19.60;;;;;;;12.22;100.00;101170.19;1037471;28;20293;-77
2022/09/24 00:30:13;;;;;;;23.90;18.38;;;;;;;12.23;100.00;101163.78;1039534;28;20375;-77
2022/09/24 00:30:45;;;;;;;30.98;20.55;;;;;;;12.25;100.00;101167.06;1039881;28;20844;-78
2022/09/24 00:31:17;;;;;;;23.00;19.13;;;;;;;12.23;100.00;101159.28;1036019;28;20296;-77
2022/09/24 00:31:50;;;;;;;23.77;19.30;;;;;;;12.23;100.00;101169.13;1036076;28;20324;-78
2022/09/24 00:32:23;;;;;;;22.15;19.00;;;;;;;12.24;100.00;101170.78;1038159;28;20405;-78
2022/09/24 00:32:54;;;;;;;26.92;21.52;;;;;;;12.24;100.00;101168.09;1038666;28;20765;-77
2022/09/24 00:33:31;;;;;;;23.98;19.15;;;;;;;12.25;100.00;101162.53;1033890;28;20301;-78
2022/09/24 00:34:03;;;;;;;23.55;19.45;;;;;;;12.26;100.00;101163.34;1036664;28;20316;-77
2022/09/24 00:34:34;;;;;;;23.35;20.25;;;;;;;12.29;100.00;101163.72;1035672;28;20353;-78
2022/09/24 00:35:06;;;;;;;26.67;19.77;;;;;;;12.29;100.00;101165.59;1032469;28;20309;-78
2022/09/24 00:35:40;;;;;;;24.25;19.40;;;;;;;12.23;100.00;101163.78;1038659;28;20303;-77
2022/09/24 00:36:13;;;;;;;24.85;20.08;;;;;;;12.25;100.00;101172.41;1040463;28;20364;-89
2022/09/24 00:36:45;;;;;;;26.95;18.92;;;;;;;12.26;100.00;101158.84;1047668;28;20303;-89
2022/09/24 00:37:18;;;;;;;28.33;18.88;;;;;;;12.27;100.00;101165.00;1043357;28;20349;-89
2022/09/24 00:37:49;;;;;;;25.75;17.08;;;;;;;12.24;100.00;101166.25;1037390;28;20383;-89
2022/09/24 00:38:21;;;;;;;24.83;18.67;;;;;;;12.22;100.00;101160.31;1036939;28;20786;-89
2022/09/24 00:38:55;;;;;;;23.73;19.02;;;;;;;12.21;100.00;101160.53;1039622;28;20332;-90
2022/09/24 00:39:26;;;;;;;26.00;18.90;;;;;;;12.25;100.00;101164.41;1039296;28;20411;-89
2022/09/24 00:39:58;;;;;;;20.05;17.48;;;;;;;12.26;100.00;101158.84;1040524;28;20307;-89
2022/09/24 00:40:35;;;;;;;25.25;18.85;;;;;;;12.26;100.00;101164.16;1039367;28;20344;-89
2022/09/24 00:41:07;;;;;;;28.58;20.17;;;;;;;12.26;100.00;101158.00;1042058;28;20709;-89
2022/09/24 00:41:41;;;;;;;26.73;20.58;;;;;;;12.28;100.00;101161.28;1040894;28;20323;-89
2022/09/24 00:42:12;;;;;;;24.48;18.35;;;;;;;12.29;100.00;101157.56;1039470;28;20301;-88
2022/09/24 00:42:44;;;;;;;24.38;19.42;;;;;;;12.26;100.00;101160.69;1040287;28;20859;-88
2022/09/24 00:43:36;;;;;;;23.27;18.63;;;;;;;12.23;100.00;101161.94;1038721;28;20284;-88
2022/09/24 00:44:44;;;;;;;23.00;18.38;;;;;;;12.25;100.00;101156.38;1038152;28;20285;-88
2022/09/24 00:45:15;;;;;;;23.80;17.27;;;;;;;12.24;100.00;101150.22;1039473;28;20296;-77
2022/09/24 00:45:47;;;;;;;21.98;17.85;;;;;;;12.26;100.00;101155.34;1036946;28;20308;-77
2022/09/24 00:46:31;;;;;;;22.45;18.75;;;;;;;12.24;100.00;101155.56;1039695;28;20300;-77
2022/09/24 00:47:03;;;;;;;22.42;17.50;;;;;;;12.27;100.00;101156.97;1041532;28;20331;-77
2022/09/24 00:47:38;;;;;;;25.10;18.88;;;;;;;12.23;100.00;101155.78;1039767;28;20766;-78
2022/09/24 00:48:10;;;;;;;23.48;18.30;;;;;;;12.23;100.00;101147.78;1031899;28;20637;-77
2022/09/24 00:48:42;;;;;;;26.55;19.70;;;;;;;12.23;100.00;101147.78;1028264;28;20387;-77
2022/09/24 00:49:16;;;;;;;24.95;19.65;;;;;;;12.25;100.00;101154.53;1036531;28;20304;-77
2022/09/24 00:49:48;;;;;;;25.17;18.05;;;;;;;12.25;100.00;101156.38;1037311;28;20637;-78
2022/09/24 00:50:24;;;;;;;24.98;19.48;;;;;;;12.23;100.00;101153.94;1040463;28;20287;-77
2022/09/24 00:50:56;;;;;;;25.45;19.10;;;;;;;12.21;100.00;101153.34;1033923;28;20372;-77
2022/09/24 00:51:29;;;;;;;21.58;18.15;;;;;;;12.25;100.00;101153.72;1036569;28;20447;-77
2022/09/24 00:52:01;;;;;;;26.13;18.67;;;;;;;12.23;100.00;101148.59;1037279;28;20356;-77
2022/09/24 00:52:39;;;;;;;21.05;17.85;;;;;;;12.24;100.00;101149.41;1034840;28;20297;-78
2022/09/24 00:53:17;;;;;;;24.42;19.17;;;;;;;12.22;100.00;101151.47;1038274;28;20287;-78
2022/09/24 00:53:52;;;;;;;23.23;18.13;;;;;;;12.24;100.00;101144.06;1034055;28;20345;-89
2022/09/24 00:54:27;;;;;;;21.13;17.33;;;;;;;12.23;100.00;101147.78;1040324;28;20324;-89
2022/09/24 00:54:59;;;;;;;24.90;18.48;;;;;;;12.23;100.00;101145.09;1042957;28;20365;-89
2022/09/24 00:55:32;;;;;;;27.65;18.50;;;;;;;12.23;100.00;101150.44;1042409;28;20299;-89
2022/09/24 00:56:06;;;;;;;21.55;19.15;;;;;;;12.23;100.00;101147.78;1041514;28;20299;-88
2022/09/24 00:56:39;;;;;;;26.55;19.38;;;;;;;12.29;100.00;101144.22;1038358;28;20295;-88
2022/09/24 00:57:12;;;;;;;24.13;19.10;;;;;;;12.26;100.00;101142.81;1036862;28;20753;-89
2022/09/24 00:57:44;;;;;;;25.52;20.58;;;;;;;12.24;100.00;101144.06;1044828;28;20349;-87
2022/09/24 00:58:16;;;;;;;23.33;19.15;;;;;;;12.24;100.00;101141.41;1044719;28;20295;-88
2022/09/24 00:58:55;;;;;;;28.45;23.48;;;;;;;12.23;100.00;101153.13;1041232;28;20303;-89
2022/09/24 00:59:27;;;;;;;23.60;20.23;;;;;;;12.29;100.00;101149.56;1032140;28;20301;-89
2022/09/24 00:59:58;;;;;;;28.58;19.98;;;;;;;12.27;100.00;101139.09;1038959;28;20037;-89
2022/09/24 01:00:30;;;;;;;22.25;18.67;;;;;;;12.27;100.00;101135.59;1045288;28;20310;-89
2022/09/24 01:01:06;;;;;;;23.35;19.67;;;;;;;12.27;100.00;101143.63;1043634;28;20296;-89
2022/09/24 01:01:38;;;;;;;25.88;19.65;;;;;;;12.26;100.00;101142.81;1043092;28;20292;-89
2022/09/24 01:02:11;;;;;;;26.42;19.00;;;;;;;12.27;100.00;101138.28;1035425;28;20308;-77
2022/09/24 01:02:45;;;;;;;21.83;18.77;;;;;;;12.25;100.00;101143.03;1028708;28;20302;-77
2022/09/24 01:03:23;;;;;;;22.00;18.27;;;;;;;12.23;100.00;101137.09;1039226;28;20362;-78
2022/09/24 01:03:56;;;;;;;23.70;18.50;;;;;;;12.22;100.00;101130.13;1041443;28;20300;-78
2022/09/24 01:04:27;;;;;;;27.60;19.63;;;;;;;12.23;100.00;101137.09;1043415;28;20292;-78
2022/09/24 01:04:59;;;;;;;23.83;18.85;;;;;;;12.22;100.00;101138.13;1045545;28;20306;-78
2022/09/24 01:05:31;;;;;;;23.02;18.88;;;;;;;12.21;100.00;101128.47;1040348;28;20287;-77
2022/09/24 01:06:03;;;;;;;25.15;20.13;;;;;;;12.21;100.00;101133.81;1036345;28;20447;-77
2022/09/24 01:06:34;;;;;;;25.08;20.40;;;;;;;12.21;100.00;101136.50;1035208;28;20300;-77
2022/09/24 01:07:06;;;;;;;25.17;19.48;;;;;;;12.23;100.00;101134.41;1039688;28;20308;-77
2022/09/24 01:07:37;;;;;;;28.58;19.75;;;;;;;12.24;100.00;101133.38;1039899;28;20304;-78
2022/09/24 01:08:13;;;;;;;23.13;19.17;;;;;;;12.22;100.00;101135.47;1043775;28;20742;-78
2022/09/24 01:08:45;;;;;;;26.17;19.17;;;;;;;12.27;100.00;101133.75;1042245;28;20795;-78
2022/09/24 01:09:19;;;;;;;22.33;18.17;;;;;;;12.25;100.00;101133.16;1040768;28;20805;-77
2022/09/24 01:09:51;;;;;;;26.83;19.48;;;;;;;12.23;100.00;101131.75;1041213;28;20303;-78
2022/09/24 01:10:46;;;;;;;23.92;20.15;;;;;;;12.24;100.00;101133.38;1039211;28;20326;-77
2022/09/24 01:11:20;;;;;;;25.23;18.50;;;;;;;12.25;100.00;101129.69;1039453;28;20381;-78
2022/09/24 01:12:13;;;;;;;21.73;18.67;;;;;;;12.22;100.00;101127.44;1043321;28;20333;-77
2022/09/24 01:12:57;;;;;;;26.83;19.73;;;;;;;12.23;100.00;101123.75;1043154;28;20699;-78
2022/09/24 01:13:39;;;;;;;25.08;19.92;;;;;;;12.22;100.00;101127.44;1043618;28;20303;-78
2022/09/24 01:14:36;;;;;;;28.15;18.70;;;;;;;12.23;100.00;101129.91;1040670;28;20308;-78
2022/09/24 01:15:18;;;;;;;23.13;18.92;;;;;;;12.22;100.00;101130.13;1039882;28;20347;-77
2022/09/24 01:15:58;;;;;;;25.48;17.60;;;;;;;12.20;100.00;101132.19;1035510;28;20301;-77
2022/09/24 01:16:38;;;;;;;23.27;19.55;;;;;;;12.19;100.00;101126.03;1035530;28;20312;-78
2022/09/24 01:17:29;;;;;;;26.25;18.83;;;;;;;12.24;100.00;101122.69;1043239;28;20386;-78
2022/09/24 01:18:06;;;;;;;23.38;18.80;;;;;;;12.25;100.00;101124.34;1044005;28;20044;-78
2022/09/24 01:18:43;;;;;;;21.77;18.50;;;;;;;12.21;100.00;101123.97;1035643;28;20304;-78
2022/09/24 01:19:43;;;;;;;23.40;18.40;;;;;;;12.23;100.00;101131.75;1039537;28;20292;-78
2022/09/24 01:20:40;;;;;;;22.95;18.85;;;;;;;12.20;100.00;101121.50;1036223;28;20316;-77
2022/09/24 01:21:46;;;;;;;23.02;18.00;;;;;;;12.20;100.00;101114.31;1035525;28;20312;-78
2022/09/24 01:22:33;;;;;;;21.52;18.15;;;;;;;12.21;100.00;101121.28;1036879;28;20300;-78
2022/09/24 01:23:33;;;;;;;25.77;19.13;;;;;;;12.20;100.00;101121.50;1042122;28;20311;-78
2022/09/24 01:24:24;;;;;;;27.13;19.00;;;;;;;12.28;100.00;101123.88;1037497;28;20307;-78
2022/09/24 01:25:24;;;;;;;26.02;17.98;;;;;;;12.26;100.00;101124.09;1037749;28;20757;-78
2022/09/24 01:26:32;;;;;;;23.45;18.10;;;;;;;12.29;100.00;101120.19;1041993;28;20303;-78
2022/09/24 01:27:13;;;;;;;27.05;19.73;;;;;;;12.25;100.00;101116.31;1034230;28;20300;-78
2022/09/24 01:28:06;;;;;;;23.30;18.50;;;;;;;12.26;100.00;101115.28;1041960;28;20456;-78
2022/09/24 01:28:51;;;;;;;23.10;18.38;;;;;;;12.29;100.00;101120.19;1044353;28;20630;-77
2022/09/24 01:29:52;;;;;;;23.88;19.30;;;;;;;12.26;100.00;101109.94;1045850;28;20303;-78
2022/09/24 01:30:24;;;;;;;24.35;17.92;;;;;;;12.24;100.00;101117.34;1039208;28;20828;-78
2022/09/24 01:31:04;;;;;;;21.75;18.52;;;;;;;12.17;100.00;101113.94;1035396;28;20304;-78
2022/09/24 01:31:43;;;;;;;26.23;19.75;;;;;;;12.14;100.00;101117.06;1030816;28;20347;-78
2022/09/24 01:32:19;;;;;;;23.85;19.25;;;;;;;12.17;100.00;101116.59;1032432;28;20294;-78
2022/09/24 01:32:54;;;;;;;23.88;18.77;;;;;;;12.18;100.00;101112.91;1034400;28;20336;-78
2022/09/24 01:33:26;;;;;;;26.00;19.42;;;;;;;12.23;100.00;101116.53;1036756;28;20652;-78
2022/09/24 01:34:01;;;;;;;26.98;20.85;;;;;;;12.21;100.00;101112.47;1036902;28;20763;-78
2022/09/24 01:34:47;;;;;;;24.05;19.20;;;;;;;12.23;100.00;101113.88;1039410;28;20299;-78
2022/09/24 01:35:23;;;;;;;23.15;18.83;;;;;;;12.26;100.00;101110.75;1041400;28;20693;-78
2022/09/24 01:35:57;;;;;;;22.92;19.85;;;;;;;12.27;100.00;101108.91;1036116;28;20307;-78
2022/09/24 01:36:29;;;;;;;25.30;20.73;;;;;;;12.26;100.00;101115.28;1035730;28;20303;-78
2022/09/24 01:37:02;;;;;;;22.67;19.92;;;;;;;12.25;100.00;101113.66;1032656;28;20376;-78
2022/09/24 01:37:36;;;;;;;28.40;20.98;;;;;;;12.26;100.00;101115.28;1032087;28;20369;-78
2022/09/24 01:38:14;;;;;;;27.40;21.23;;;;;;;12.24;100.00;101112.03;1036493;28;20741;-78
2022/09/24 01:38:48;;;;;;;25.95;19.60;;;;;;;12.22;100.00;101111.41;1036934;28;20304;-78
2022/09/24 01:39:20;;;;;;;26.48;21.92;;;;;;;12.21;100.00;101113.28;1037757;28;20297;-78
2022/09/24 01:39:54;;;;;;;23.92;20.13;;;;;;;12.21;100.00;101115.13;1035136;28;20293;-78
2022/09/24 01:40:27;;;;;;;24.33;18.63;;;;;;;12.20;100.00;101110.81;1035411;28;20703;-78
2022/09/24 01:41:01;;;;;;;26.80;19.88;;;;;;;12.22;100.00;101108.75;1032051;28;20305;-78
2022/09/24 01:41:35;;;;;;;25.52;20.35;;;;;;;12.21;100.00;101102.59;1032629;28;20313;-78
2022/09/24 01:42:09;;;;;;;26.60;20.77;;;;;;;12.23;100.00;101105.03;1031239;28;20297;-78
2022/09/24 01:42:42;;;;;;;25.67;19.85;;;;;;;12.22;100.00;101108.75;1032479;28;20404;-78
2022/09/24 01:43:17;;;;;;;26.77;20.85;;;;;;;12.20;100.00;101113.50;1027687;28;20354;-78
2022/09/24 01:43:49;;;;;;;23.45;19.75;;;;;;;12.19;100.00;101106.53;1030679;28;20353;-78
2022/09/24 01:44:20;;;;;;;26.70;21.25;;;;;;;12.19;100.00;101109.19;1035142;28;20376;-78
2022/09/24 01:44:53;;;;;;;26.13;21.23;;;;;;;12.18;100.00;101104.88;1034092;28;20845;-78
2022/09/24 01:45:30;;;;;;;28.98;21.17;;;;;;;12.17;100.00;101103.25;1035179;28;20332;-78
2022/09/24 01:46:05;;;;;;;26.67;19.75;;;;;;;12.17;100.00;101113.94;1031163;28;20305;-78
2022/09/24 01:46:38;;;;;;;23.83;18.88;;;;;;;12.16;100.00;101098.97;1035803;28;20301;-78
2022/09/24 01:47:17;;;;;;;25.60;21.60;;;;;;;12.14;100.00;101106.38;1043436;28;20303;-78
2022/09/24 01:47:49;;;;;;;26.88;21.27;;;;;;;12.15;100.00;101108.00;1043234;28;20307;-78
2022/09/24 01:48:22;;;;;;;27.42;21.05;;;;;;;12.14;100.00;101104.53;1039095;28;20288;-78
2022/09/24 01:48:54;;;;;;;28.05;20.52;;;;;;;12.13;100.00;101110.91;1037156;28;20379;-78
2022/09/24 01:49:25;;;;;;;25.30;20.98;;;;;;;12.13;100.00;101104.75;1038955;28;20374;-78
2022/09/24 01:49:57;;;;;;;24.52;20.52;;;;;;;12.11;100.00;101096.13;1040354;28;20292;-78
2022/09/24 01:50:33;;;;;;;27.67;22.00;;;;;;;12.11;100.00;101101.47;1040380;28;20299;-78
2022/09/24 01:51:10;;;;;;;27.00;21.90;;;;;;;12.11;100.00;101106.81;1038779;28;20785;-78
2022/09/24 01:51:48;;;;;;;25.48;21.58;;;;;;;12.11;100.00;101098.81;1033325;28;20704;-78
2022/09/24 01:52:24;;;;;;;24.98;21.02;;;;;;;12.09;100.00;101098.22;1031169;28;20316;-78
2022/09/24 01:52:58;;;;;;;28.83;23.13;;;;;;;12.08;100.00;101102.72;1029420;28;20308;-78
2022/09/24 01:53:36;;;;;;;25.25;20.60;;;;;;;12.09;100.00;101108.88;1033658;28;20312;-78
2022/09/24 01:54:14;;;;;;;25.35;20.20;;;;;;;12.09;100.00;101104.38;1029963;28;20318;-78
2022/09/24 01:54:50;;;;;;;28.08;22.20;;;;;;;12.09;100.00;101098.22;1040294;28;20304;-78
2022/09/24 01:55:24;;;;;;;25.92;21.35;;;;;;;12.12;100.00;101105.78;1031288;28;20302;-78
2022/09/24 01:56:05;;;;;;;28.75;22.33;;;;;;;12.10;100.00;101095.31;1031525;28;20716;-78
2022/09/24 01:56:41;;;;;;;26.13;21.17;;;;;;;12.09;100.00;101093.69;1031106;28;20432;-78
2022/09/24 01:57:18;;;;;;;29.00;22.20;;;;;;;12.10;100.00;101098.00;1040483;28;20457;-78
2022/09/24 01:57:56;;;;;;;26.50;21.67;;;;;;;12.11;100.00;101090.78;1039156;28;20744;-78
2022/09/24 01:59:01;;;;;;;29.73;23.75;;;;;;;12.11;100.00;101096.13;1037629;28;20468;-78
2022/09/24 01:59:43;;;;;;;29.48;22.02;;;;;;;12.13;100.00;101091.38;1040961;28;20299;-78
2022/09/24 02:00:20;;;;;;;26.60;22.13;;;;;;;12.14;100.00;101088.50;1045848;28;20756;-78
2022/09/24 02:00:56;;;;;;;25.95;21.23;;;;;;;12.19;100.00;101098.50;1042655;28;20330;-78
2022/09/24 02:01:39;;;;;;;27.75;19.92;;;;;;;12.18;100.00;101091.53;1039576;28;20291;-78
2022/09/24 02:02:32;;;;;;;31.58;21.40;;;;;;;12.15;100.00;101090.13;1035492;28;20292;-78
2022/09/24 02:03:09;;;;;;;27.52;20.45;;;;;;;12.14;100.00;101080.47;1048392;28;20033;-78
2022/09/24 02:03:45;;;;;;;28.40;24.33;;;;;;;12.19;100.00;101087.81;1043333;28;20333;-78
2022/09/24 02:04:19;;;;;;;26.23;20.52;;;;;;;12.17;100.00;101087.22;1043485;28;20291;-77
2022/09/24 02:04:57;;;;;;;23.58;20.40;;;;;;;12.18;100.00;101086.19;1036768;28;20678;-78
2022/09/24 02:05:43;;;;;;;31.02;22.27;;;;;;;12.18;100.00;101086.19;1035487;28;20294;-78
2022/09/24 02:06:30;;;;;;;26.90;19.92;;;;;;;12.16;100.00;101082.94;1038865;28;20300;-78
2022/09/24 02:07:18;;;;;;;24.77;21.13;;;;;;;12.16;100.00;101086.41;1039630;28;20362;-77
2022/09/24 02:08:17;;;;;;;28.15;21.50;;;;;;;12.14;100.00;101085.00;1039738;28;20319;-78
2022/09/24 02:08:48;;;;;;;26.75;20.08;;;;;;;12.12;100.00;101074.56;1039734;28;20343;-78
2022/09/24 02:09:38;;;;;;;35.05;22.83;;;;;;;12.13;100.00;101080.72;1043895;28;20369;-78
2022/09/24 02:10:15;;;;;;;30.83;22.60;;;;;;;12.13;100.00;101083.38;1043154;28;20299;-78
2022/09/24 02:10:49;;;;;;;28.55;23.08;;;;;;;12.13;100.00;101080.72;1046891;28;20483;-78
2022/09/24 02:11:22;;;;;;;31.23;22.65;;;;;;;12.15;100.00;101076.78;1047219;28;20302;-78
2022/09/24 02:11:55;;;;;;;34.53;23.67;;;;;;;12.16;100.00;101086.41;1043291;28;20533;-78
2022/09/24 02:12:32;;;;;;;28.55;22.77;;;;;;;12.18;100.00;101086.19;1036484;28;20371;-78
2022/09/24 02:13:06;;;;;;;33.88;23.65;;;;;;;12.19;100.00;101083.31;1031288;28;20316;-78
2022/09/24 02:13:47;;;;;;;28.73;22.45;;;;;;;12.19;100.00;101079.81;1035128;28;20313;-78
2022/09/24 02:14:19;;;;;;;31.77;23.10;;;;;;;12.17;100.00;101080.03;1041578;28;20299;-78
2022/09/24 02:14:57;;;;;;;28.50;22.10;;;;;;;12.16;100.00;101078.41;1047834;28;20298;-78
2022/09/24 02:15:33;;;;;;;26.88;22.23;;;;;;;12.19;100.00;101077.97;1040415;28;20803;-78
2022/09/24 02:16:07;;;;;;;27.27;22.60;;;;;;;12.18;100.00;101080.84;1034933;28;20350;-78
2022/09/24 02:16:49;;;;;;;30.20;22.75;;;;;;;12.15;100.00;101075.97;1033106;28;20314;-78
2022/09/24 02:17:23;;;;;;;29.77;23.02;;;;;;;12.14;100.00;101074.31;1037728;28;20307;-78
2022/09/24 02:17:56;;;;;;;28.33;22.52;;;;;;;12.13;100.00;101078.03;1034790;28;20341;-78
2022/09/24 02:18:33;;;;;;;24.45;20.80;;;;;;;12.13;100.00;101083.38;1035463;28;20292;-78
2022/09/24 02:19:10;;;;;;;32.60;24.08;;;;;;;12.12;100.00;101071.88;1035181;28;20300;-78
2022/09/24 02:19:43;;;;;;;33.00;23.85;;;;;;;12.12;100.00;101071.88;1039408;28;20296;-78
2022/09/24 02:20:19;;;;;;;29.75;24.08;;;;;;;12.11;100.00;101072.91;1038971;28;20745;-78
2022/09/24 02:20:52;;;;;;;29.80;23.88;;;;;;;12.10;100.00;101073.97;1037014;28;20382;-78
2022/09/24 02:21:25;;;;;;;27.73;22.13;;;;;;;12.09;100.00;101075.00;1032418;28;20312;-78
2022/09/24 02:21:57;;;;;;;31.02;22.38;;;;;;;12.09;100.00;101066.97;1036560;28;20301;-78
2022/09/24 02:22:29;;;;;;;27.40;22.52;;;;;;;12.11;100.00;101069.44;1031055;28;20763;-78
2022/09/24 02:23:02;;;;;;;33.33;24.58;;;;;;;12.11;100.00;101064.09;1038781;28;20304;-78
2022/09/24 02:23:36;;;;;;;29.95;25.25;;;;;;;12.10;100.00;101073.97;1039117;28;20626;-78
2022/09/24 02:24:14;;;;;;;31.85;23.30;;;;;;;12.12;100.00;101063.06;1036200;28;20320;-78
2022/09/24 02:24:49;;;;;;;29.25;23.98;;;;;;;12.15;100.00;101068.75;1037774;28;20345;-78
2022/09/24 02:25:27;;;;;;;28.00;22.85;;;;;;;12.16;100.00;101069.59;1035668;28;20298;-78
2022/09/24 02:26:02;;;;;;;32.45;24.23;;;;;;;12.18;100.00;101067.50;1035360;28;21053;-78
2022/09/24 02:26:34;;;;;;;29.38;23.25;;;;;;;12.16;100.00;101064.25;1033198;28;20307;-78
2022/09/24 02:27:05;;;;;;;28.20;21.63;;;;;;;12.18;100.00;101064.84;1036065;28;20822;-78
2022/09/24 02:27:37;;;;;;;28.50;23.63;;;;;;;12.20;100.00;101068.09;1040218;28;20378;-78
2022/09/24 02:28:09;;;;;;;28.98;21.73;;;;;;;12.20;100.00;101070.75;1038812;28;20300;-78
2022/09/24 02:28:40;;;;;;;26.52;21.58;;;;;;;12.19;100.00;101074.47;1035402;28;20312;-78
2022/09/24 02:29:12;;;;;;;26.67;23.00;;;;;;;12.17;100.00;101068.53;1038051;28;20315;-78
2022/09/24 02:29:45;;;;;;;27.95;21.92;;;;;;;12.16;100.00;101061.56;1035201;28;20304;-78
2022/09/24 02:30:16;;;;;;;30.20;23.00;;;;;;;12.16;100.00;101073.06;1031603;28;20664;-78
2022/09/24 02:30:56;;;;;;;33.42;23.52;;;;;;;12.20;100.00;101070.75;1035028;28;20319;-78
2022/09/24 02:31:30;;;;;;;30.92;22.63;;;;;;;12.20;100.00;101062.75;1036712;28;20313;-78
2022/09/24 02:32:03;;;;;;;26.98;22.17;;;;;;;12.18;100.00;101070.19;1036720;28;20296;-78
2022/09/24 02:32:36;;;;;;;28.60;21.77;;;;;;;12.12;100.00;101065.72;1035005;28;20297;-78
2022/09/24 02:34:19;;;;;;;31.00;22.98;;;;;;;12.12;100.00;101063.06;1036475;28;20548;-78
2022/09/24 02:34:19;;;;;;;33.25;23.33;;;;;;;12.09;100.00;101066.97;1034782;28;20794;-78
2022/09/24 02:34:54;;;;;;;30.13;21.80;;;;;;;12.09;100.00;101063.50;1040598;28;20702;-78
2022/09/24 02:35:26;;;;;;;27.73;21.60;;;;;;;12.10;100.00;101073.13;1045395;28;20326;-78
2022/09/24 02:35:57;;;;;;;28.88;22.58;;;;;;;12.09;100.00;101061.66;1043338;28;20903;-78
2022/09/24 02:36:29;;;;;;;25.80;21.98;;;;;;;12.09;100.00;101066.16;1048334;28;20310;-78
2022/09/24 02:37:07;;;;;;;27.42;21.77;;;;;;;12.09;100.00;101071.50;1051263;28;20814;-78
2022/09/24 02:37:41;;;;;;;38.03;24.25;;;;;;;12.12;100.00;101071.88;1051402;28;20305;-78
2022/09/24 02:38:17;;;;;;;28.58;21.42;;;;;;;12.12;100.00;101060.38;1045595;28;20295;-78
2022/09/24 02:38:48;;;;;;;29.90;23.15;;;;;;;12.12;100.00;101066.53;1035246;28;20707;-78
2022/09/24 02:39:20;;;;;;;29.77;23.55;;;;;;;12.12;100.00;101063.06;1036283;28;20478;-78
2022/09/24 02:39:52;;;;;;;29.20;22.75;;;;;;;12.12;100.00;101071.88;1040055;28;20667;-78
2022/09/24 02:40:24;;;;;;;29.38;22.95;;;;;;;12.16;100.00;101061.56;1043607;28;20299;-78
2022/09/24 02:40:56;;;;;;;30.83;23.40;;;;;;;12.17;100.00;101064.03;1038971;28;20393;-78
2022/09/24 02:41:28;;;;;;;31.98;24.17;;;;;;;12.15;100.00;101065.28;1035124;28;20304;-78
2022/09/24 02:42:03;;;;;;;33.08;23.55;;;;;;;12.13;100.00;101062.00;1034974;28;20304;-78
2022/09/24 02:42:35;;;;;;;31.92;22.15;;;;;;;12.13;100.00;101062.00;1035237;28;20297;-77
2022/09/24 02:43:07;;;;;;;31.15;23.02;;;;;;;12.16;100.00;101064.25;1036593;28;20807;-78
2022/09/24 02:43:39;;;;;;;31.50;23.25;;;;;;;12.12;100.00;101055.84;1035835;28;20799;-78
2022/09/24 02:44:11;;;;;;;29.67;21.45;;;;;;;12.11;100.00;101064.09;1035928;28;20970;-78